Thor, Iowa
Current Conditions -  °F | °C
As of 6:55 AM on Saturday 25 Oct 2014 (Local Time) from KFOD Reporting Station
Clear Clear  
Wind Chill: 48°   Ceiling: Unl
Heat Index: 48°   Visibility: 10mi
Dew Point: 39°   Wind: 3mph
Humidity: 71%   Direction: 350°N
Pressure: 30.06"   Gusts: NA
Location:  42.69°N, 94.05°W
Report Text: KFOD 251155Z AUTO 35003KT 10SM CLR 09/04 A3006 RMK AO1 10110 20090 52010
Loading
Personal Weather Stations






























Interactive Weather Map
Tropical Storm Tracking
New forecast layout! Learn more

10-Day Weather Forecast

Advertisements
Track Severe Weather on mobile